createdAt,value
2023-03-05T00:01:45.095Z,5.20
2023-03-05T00:04:17.189Z,5.70
2023-03-05T00:06:45.479Z,5.60
2023-03-05T00:09:13.576Z,5.43
2023-03-05T00:11:41.357Z,4.97
2023-03-05T00:14:10.396Z,5.45
2023-03-05T00:16:38.414Z,5.63
2023-03-05T00:19:09.086Z,5.20
2023-03-05T00:21:39.769Z,5.63
2023-03-05T00:24:12.172Z,5.75
2023-03-05T00:26:40.839Z,5.65
2023-03-05T00:29:09.898Z,5.85
2023-03-05T00:31:40.009Z,5.82
2023-03-05T00:34:10.982Z,6.50
2023-03-05T00:36:44.861Z,4.90
2023-03-05T00:39:13.701Z,5.25
2023-03-05T00:41:41.832Z,5.40
2023-03-05T00:44:10.346Z,5.22
2023-03-05T00:46:47.466Z,5.93
2023-03-05T00:49:20.790Z,5.53
2023-03-05T00:51:48.692Z,6.13
2023-03-05T00:54:16.548Z,6.32
2023-03-05T00:56:48.023Z,5.30
2023-03-05T00:59:15.986Z,5.78
2023-03-05T01:01:44.290Z,5.72
2023-03-05T01:04:12.248Z,5.40
2023-03-05T01:06:44.959Z,5.85
2023-03-05T01:09:14.704Z,6.13
2023-03-05T01:11:42.477Z,5.40
2023-03-05T01:14:10.259Z,6.20
2023-03-05T01:16:38.282Z,5.60
2023-03-05T01:19:06.329Z,5.90
2023-03-05T01:21:35.901Z,6.43
2023-03-05T01:24:04.318Z,5.45
2023-03-05T01:26:31.974Z,5.72
2023-03-05T01:28:59.556Z,5.75
2023-03-05T01:31:27.246Z,6.00
2023-03-05T01:33:55.409Z,5.00
2023-03-05T01:36:25.215Z,5.50
2023-03-05T01:38:53.190Z,5.88
2023-03-05T01:41:21.785Z,5.75
2023-03-05T01:43:49.869Z,6.38
2023-03-05T01:46:35.658Z,5.80
2023-03-05T01:49:05.588Z,4.50
2023-03-05T01:54:07.474Z,5.07
2023-03-05T01:56:40.315Z,4.57
2023-03-05T01:59:08.840Z,4.70
2023-03-05T02:01:43.734Z,4.40
2023-03-05T02:04:15.903Z,4.53
2023-03-05T02:06:44.866Z,4.80
2023-03-05T02:09:13.393Z,4.38
2023-03-05T02:11:41.578Z,4.38
2023-03-05T02:14:10.341Z,4.00
2023-03-05T02:16:42.639Z,4.00
2023-03-05T02:19:12.102Z,4.90
2023-03-05T02:21:47.398Z,4.30
2023-03-05T02:24:33.699Z,3.95
2023-03-05T02:27:03.050Z,3.78
2023-03-05T02:29:33.603Z,3.95
2023-03-05T02:32:01.928Z,4.55
2023-03-05T02:34:30.194Z,3.28
2023-03-05T02:36:58.503Z,4.28
2023-03-05T02:39:26.472Z,4.68
2023-03-05T02:42:00.181Z,3.90
2023-03-05T02:44:28.605Z,4.10
2023-03-05T02:46:56.223Z,3.90
2023-03-05T02:49:23.992Z,4.63
2023-03-05T02:51:51.784Z,4.78
2023-03-05T02:54:19.725Z,4.63
2023-03-05T02:56:47.492Z,4.32
2023-03-05T02:59:15.152Z,4.07
2023-03-05T03:01:42.835Z,4.45
2023-03-05T03:04:10.567Z,4.22
2023-03-05T03:06:38.222Z,4.25
2023-03-05T03:09:06.129Z,4.03
2023-03-05T03:11:33.728Z,4.30
2023-03-05T03:14:01.446Z,3.67
2023-03-05T03:16:29.063Z,4.05
2023-03-05T03:18:57.951Z,4.00
2023-03-05T03:21:27.006Z,3.50
2023-03-05T03:23:54.742Z,4.00
2023-03-05T03:26:22.473Z,3.83
2023-03-05T03:28:50.840Z,4.20
2023-03-05T03:31:18.479Z,4.38
2023-03-05T03:33:46.223Z,3.97
2023-03-05T03:36:14.361Z,3.63
2023-03-05T03:38:42.291Z,3.85
2023-03-05T03:41:09.948Z,3.80
2023-03-05T03:43:38.138Z,4.25
2023-03-05T03:46:09.041Z,3.30
2023-03-05T03:48:39.695Z,4.65
2023-03-05T03:51:07.880Z,4.18
2023-03-05T03:53:35.553Z,4.38
2023-03-05T03:56:03.650Z,4.57
2023-03-05T03:58:31.223Z,4.22
2023-03-05T04:00:58.868Z,4.43
2023-03-05T04:03:29.372Z,4.07
2023-03-05T04:05:57.028Z,4.28
2023-03-05T04:08:24.579Z,4.43
2023-03-05T04:10:52.297Z,4.28
2023-03-05T04:13:19.859Z,4.22
2023-03-05T04:15:47.476Z,4.40
2023-03-05T04:18:15.014Z,4.50
2023-03-05T04:20:42.584Z,4.63
2023-03-05T04:23:12.728Z,4.47
2023-03-05T04:25:42.703Z,4.85
2023-03-05T04:28:12.385Z,4.60
2023-03-05T04:30:42.002Z,4.55
2023-03-05T04:33:09.822Z,5.18
2023-03-05T04:35:38.221Z,4.40
2023-03-05T04:38:09.001Z,4.25
2023-03-05T04:40:36.951Z,4.43
2023-03-05T04:43:05.152Z,4.35
2023-03-05T04:45:33.456Z,4.55
2023-03-05T04:48:01.597Z,4.85
2023-03-05T04:50:29.171Z,5.22
2023-03-05T04:52:57.373Z,5.53
2023-03-05T04:55:24.976Z,5.57
2023-03-05T04:57:52.694Z,5.85
2023-03-05T05:00:21.781Z,4.47
2023-03-05T05:02:51.032Z,4.53
2023-03-05T05:05:22.048Z,5.55
2023-03-05T05:07:50.292Z,4.75
2023-03-05T05:10:17.815Z,4.82
2023-03-05T05:12:45.596Z,4.43
2023-03-05T05:15:13.450Z,5.00
2023-03-05T05:17:42.581Z,4.15
2023-03-05T05:20:13.210Z,4.78
2023-03-05T05:22:41.059Z,3.95
2023-03-05T05:25:10.398Z,3.70
2023-03-05T05:27:40.179Z,4.45
2023-03-05T05:30:08.525Z,4.43
2023-03-05T05:32:36.149Z,3.97
2023-03-05T05:35:04.057Z,3.80
2023-03-05T05:37:31.687Z,4.22
2023-03-05T05:39:59.421Z,4.38
2023-03-05T05:42:27.928Z,4.63
2023-03-05T05:44:55.552Z,4.03
2023-03-05T05:47:23.571Z,3.72
2023-03-05T05:49:51.720Z,3.83
2023-03-05T05:52:19.328Z,4.75
2023-03-05T05:54:46.973Z,4.35
2023-03-05T05:57:15.159Z,4.05
2023-03-05T05:59:44.771Z,5.13
2023-03-05T06:02:15.409Z,4.68
2023-03-05T06:04:43.173Z,4.78
2023-03-05T06:07:13.076Z,4.82
2023-03-05T06:09:40.845Z,4.38
2023-03-05T06:12:08.412Z,4.60
2023-03-05T06:14:36.378Z,5.05
2023-03-05T06:17:04.138Z,4.13
2023-03-05T06:19:33.223Z,3.75
2023-03-05T06:22:01.142Z,3.63
2023-03-05T06:24:34.390Z,4.60
2023-03-05T06:27:16.672Z,4.30
2023-03-05T06:29:47.360Z,4.07
2023-03-05T06:32:15.282Z,4.47
2023-03-05T06:34:43.036Z,3.90
2023-03-05T06:37:16.017Z,4.13
2023-03-05T06:39:43.616Z,4.97
2023-03-05T06:42:11.924Z,4.45
2023-03-05T06:44:40.758Z,4.13
2023-03-05T06:47:11.700Z,4.57
2023-03-05T06:49:40.136Z,4.22
2023-03-05T06:52:10.158Z,4.93
2023-03-05T06:54:41.180Z,4.75
2023-03-05T06:57:10.566Z,4.93
2023-03-05T06:59:38.569Z,4.72
2023-03-05T07:02:06.542Z,4.40
2023-03-05T07:04:34.439Z,5.18
2023-03-05T07:07:02.440Z,5.28
2023-03-05T07:09:30.824Z,4.18
2023-03-05T07:12:01.398Z,5.70
2023-03-05T07:14:29.076Z,4.82
2023-03-05T07:16:56.920Z,5.30
2023-03-05T07:19:28.032Z,5.00
2023-03-05T07:21:55.710Z,5.13
2023-03-05T07:24:27.306Z,6.15
2023-03-05T07:26:55.054Z,5.35
2023-03-05T07:29:23.701Z,4.80
2023-03-05T07:31:51.385Z,5.57
2023-03-05T07:34:19.126Z,5.30
2023-03-05T07:36:50.216Z,4.65
2023-03-05T07:39:21.255Z,6.15
2023-03-05T07:41:51.015Z,5.15
2023-03-05T07:44:20.325Z,5.50
2023-03-05T07:46:50.497Z,5.10
2023-03-05T07:49:21.400Z,5.20
2023-03-05T07:51:49.447Z,4.25
2023-03-05T07:54:18.353Z,5.18
2023-03-05T07:56:46.306Z,4.63
2023-03-05T07:59:19.298Z,4.28
2023-03-05T08:01:46.923Z,5.30
2023-03-05T08:04:14.585Z,4.60
2023-03-05T08:06:47.029Z,5.10
2023-03-05T08:09:14.760Z,3.97
2023-03-05T08:11:42.848Z,4.80
2023-03-05T08:14:13.666Z,4.50
2023-03-05T08:16:41.648Z,4.10
2023-03-05T08:19:11.340Z,3.92
2023-03-05T08:21:39.164Z,4.75
2023-03-05T08:24:08.858Z,4.65
2023-03-05T08:26:38.581Z,4.53
2023-03-05T08:29:07.597Z,4.55
2023-03-05T08:31:35.715Z,4.45
2023-03-05T08:34:04.293Z,4.93
2023-03-05T08:36:32.100Z,4.47
2023-03-05T08:39:00.014Z,4.18
2023-03-05T08:41:30.654Z,3.80
2023-03-05T08:43:58.230Z,3.10
2023-03-05T08:46:26.242Z,3.75
2023-03-05T08:48:57.116Z,3.95
2023-03-05T08:51:30.993Z,3.97
2023-03-05T08:54:00.217Z,4.28
2023-03-05T08:56:31.128Z,4.38
2023-03-05T08:58:58.879Z,4.40
2023-03-05T09:01:27.753Z,4.25
2023-03-05T09:03:59.830Z,3.90
2023-03-05T09:06:28.010Z,3.73
2023-03-05T09:08:55.654Z,4.38
2023-03-05T09:11:23.760Z,3.90
2023-03-05T09:13:51.593Z,4.45
2023-03-05T09:16:22.696Z,3.75
2023-03-05T09:18:53.467Z,3.35
2023-03-05T09:21:21.492Z,3.88
2023-03-05T09:23:49.231Z,4.30
2023-03-05T09:26:19.422Z,3.72
2023-03-05T09:28:48.027Z,3.97
2023-03-05T09:31:16.182Z,2.90
2023-03-05T09:33:43.862Z,3.30
2023-03-05T09:36:23.191Z,2.63
2023-03-05T09:38:51.340Z,2.50
2023-03-05T09:41:40.510Z,2.60
2023-03-05T09:44:17.202Z,2.65
2023-03-05T09:47:02.898Z,2.38
2023-03-05T09:49:54.489Z,2.25
2023-03-05T09:52:33.551Z,2.10
2023-03-05T09:55:02.243Z,2.35
2023-03-05T09:57:39.161Z,2.95
2023-03-05T10:00:21.696Z,2.60
2023-03-05T10:02:55.720Z,2.45
2023-03-05T10:05:31.063Z,2.25
2023-03-05T10:08:03.431Z,2.30
2023-03-05T10:10:53.287Z,2.38
2023-03-05T10:16:42.030Z,2.53
2023-03-05T10:19:28.443Z,2.22
2023-03-05T10:22:17.878Z,2.30
2023-03-05T10:25:16.221Z,1.83
2023-03-05T10:28:17.978Z,1.88
2023-03-05T10:31:03.475Z,2.20
2023-03-05T10:34:12.036Z,2.20
2023-03-05T10:36:59.665Z,1.58
2023-03-05T10:39:48.771Z,1.90
2023-03-05T10:42:31.038Z,2.38
2023-03-05T10:45:01.141Z,2.85
2023-03-05T10:49:58.178Z,2.20
2023-03-05T10:52:36.468Z,2.20
2023-03-05T10:55:19.063Z,2.30
2023-03-05T10:57:47.409Z,2.30
2023-03-05T11:00:23.745Z,2.00
2023-03-05T11:03:05.123Z,2.55
2023-03-05T11:05:39.170Z,1.73
2023-03-05T11:08:30.238Z,2.10
2023-03-05T11:11:13.402Z,2.42
2023-03-05T11:13:53.059Z,2.00
2023-03-05T11:16:29.898Z,2.38
2023-03-05T11:19:23.056Z,2.00
2023-03-05T11:22:20.691Z,2.42
2023-03-05T11:25:15.453Z,1.90
2023-03-05T11:28:00.214Z,2.33
2023-03-05T11:30:34.954Z,2.03
2023-03-05T11:33:13.458Z,1.92
2023-03-05T11:35:43.496Z,2.25
2023-03-05T11:38:26.866Z,2.15
2023-03-05T11:40:57.308Z,1.80
2023-03-05T11:43:26.361Z,1.38
2023-03-05T11:46:04.974Z,1.77
2023-03-05T11:48:36.886Z,1.70
2023-03-05T11:51:15.943Z,1.70
2023-03-05T11:53:45.240Z,1.63
2023-03-05T11:56:31.191Z,2.03
2023-03-05T11:59:18.673Z,1.48
2023-03-05T12:01:52.235Z,1.65
2023-03-05T12:04:21.085Z,1.30
2023-03-05T12:06:58.917Z,1.75
2023-03-05T12:09:45.713Z,1.70
2023-03-05T12:12:44.673Z,1.95
2023-03-05T12:15:12.332Z,1.80
2023-03-05T12:17:44.594Z,1.50
2023-03-05T12:20:14.594Z,1.45
2023-03-05T12:25:32.700Z,1.58
2023-03-05T12:28:01.199Z,1.60
2023-03-05T12:30:34.871Z,1.27
2023-03-05T12:33:08.315Z,1.60
2023-03-05T12:35:41.200Z,1.85
2023-03-05T12:38:39.320Z,1.63
2023-03-05T12:41:27.994Z,2.00
2023-03-05T12:44:07.744Z,1.15
2023-03-05T12:46:43.377Z,2.08
2023-03-05T12:49:20.495Z,1.40
2023-03-05T12:51:53.715Z,1.60
2023-03-05T12:54:27.236Z,1.60
2023-03-05T12:57:00.750Z,1.73
2023-03-05T12:59:42.494Z,1.40
2023-03-05T13:02:37.453Z,1.65
2023-03-05T13:05:17.427Z,1.50
2023-03-05T13:10:24.394Z,1.50
2023-03-05T13:12:54.456Z,1.50
2023-03-05T13:15:26.330Z,1.50
2023-03-05T13:18:01.138Z,1.13
2023-03-05T13:20:39.055Z,1.73
2023-03-05T13:23:18.830Z,1.70
2023-03-05T13:26:10.496Z,2.47
2023-03-05T13:28:39.982Z,2.75
2023-03-05T13:31:18.678Z,2.33
2023-03-05T13:33:55.624Z,2.55
2023-03-05T13:36:25.959Z,1.67
2023-03-05T13:38:54.534Z,2.13
2023-03-05T13:41:27.334Z,2.22
2023-03-05T13:44:01.125Z,2.22
2023-03-05T13:46:35.297Z,1.77
2023-03-05T13:49:24.980Z,1.88
2023-03-05T13:51:55.142Z,2.50
2023-03-05T13:54:24.242Z,2.22
2023-03-05T13:56:51.834Z,2.20
2023-03-05T13:59:21.874Z,2.08
2023-03-05T14:01:51.268Z,1.80
2023-03-05T14:04:50.537Z,1.60
2023-03-05T14:07:26.895Z,1.70
2023-03-05T14:09:56.651Z,2.78
2023-03-05T14:12:42.774Z,1.50
2023-03-05T14:15:33.750Z,1.25
2023-03-05T14:18:16.820Z,1.70
2023-03-05T14:21:03.197Z,1.05
2023-03-05T14:23:37.171Z,1.48
2023-03-05T14:26:35.362Z,1.38
2023-03-05T14:29:14.366Z,1.40
2023-03-05T14:32:25.275Z,1.87
2023-03-05T14:34:58.007Z,1.92
2023-03-05T14:37:29.242Z,1.52
2023-03-05T14:40:05.532Z,1.75
2023-03-05T14:42:38.752Z,1.30
2023-03-05T14:45:15.003Z,1.27
2023-03-05T14:47:42.646Z,0.98
2023-03-05T14:50:37.688Z,0.90
2023-03-05T14:53:15.292Z,0.77
2023-03-05T14:55:44.705Z,1.13
2023-03-05T14:58:14.718Z,0.82
2023-03-05T15:03:13.393Z,0.90
2023-03-05T15:05:42.267Z,0.80
2023-03-05T15:08:15.525Z,0.80
2023-03-05T15:10:44.359Z,0.90
2023-03-05T15:13:14.256Z,0.80
2023-03-05T15:18:13.889Z,0.68
2023-03-05T15:20:41.400Z,0.68
2023-03-05T15:23:09.246Z,0.88
2023-03-05T15:25:37.001Z,0.40
2023-03-05T15:28:04.821Z,0.38
2023-03-05T15:30:44.621Z,0.30
2023-03-05T15:33:17.305Z,0.40
2023-03-05T15:35:45.597Z,0.30
2023-03-05T15:38:13.222Z,0.30
2023-03-05T15:40:40.805Z,0.50
2023-03-05T15:43:09.429Z,0.60
2023-03-05T15:45:37.411Z,0.65
2023-03-05T15:48:08.385Z,0.50
2023-03-05T15:50:36.048Z,0.50
2023-03-05T15:53:04.909Z,0.50
2023-03-05T15:55:32.531Z,0.70
2023-03-05T15:58:00.075Z,0.40
2023-03-05T16:00:31.303Z,0.50
2023-03-05T16:02:59.007Z,0.38
2023-03-05T16:05:27.021Z,0.57
2023-03-05T16:07:55.699Z,1.25
2023-03-05T16:10:25.602Z,0.60
2023-03-05T16:15:27.123Z,0.57
2023-03-05T16:17:58.734Z,0.50
2023-03-05T16:20:26.773Z,0.47
2023-03-05T16:22:54.532Z,0.77
2023-03-05T16:25:23.262Z,0.63
2023-03-05T16:27:50.821Z,0.30
2023-03-05T16:30:19.179Z,0.50
2023-03-05T16:32:46.757Z,0.40
2023-03-05T16:35:14.986Z,0.80
2023-03-05T16:37:42.859Z,0.65
2023-03-05T16:40:12.297Z,0.77
2023-03-05T16:42:40.146Z,0.40
2023-03-05T16:45:08.442Z,0.43
2023-03-05T16:47:37.036Z,0.40
2023-03-05T16:50:07.666Z,0.68
2023-03-05T16:52:35.313Z,0.57
2023-03-05T16:55:03.796Z,0.50
2023-03-05T16:57:31.663Z,0.45
2023-03-05T17:00:01.211Z,0.50
2023-03-05T17:02:28.962Z,0.50
2023-03-05T17:04:57.862Z,0.60
2023-03-05T17:07:26.602Z,0.80
2023-03-05T17:09:54.708Z,0.70
2023-03-05T17:12:24.332Z,0.77
2023-03-05T17:14:52.054Z,1.45
2023-03-05T17:17:20.191Z,1.13
2023-03-05T17:19:48.414Z,0.68
2023-03-05T17:22:16.681Z,0.95
2023-03-05T17:24:46.695Z,0.90
2023-03-05T17:27:14.657Z,1.00
2023-03-05T17:29:42.207Z,0.75
2023-03-05T17:32:09.888Z,0.75
2023-03-05T17:34:37.450Z,0.75
2023-03-05T17:37:05.418Z,1.17
2023-03-05T17:39:33.798Z,1.10
2023-03-05T17:42:01.616Z,1.30
2023-03-05T17:44:29.164Z,1.67
2023-03-05T17:46:56.795Z,1.20
2023-03-05T17:49:24.760Z,1.35
2023-03-05T17:51:52.346Z,1.50
2023-03-05T17:54:19.868Z,1.38
2023-03-05T17:56:48.131Z,1.65
2023-03-05T17:59:16.396Z,1.67
2023-03-05T18:01:43.965Z,1.52
2023-03-05T18:04:11.835Z,1.80
2023-03-05T18:06:39.515Z,1.60
2023-03-05T18:09:07.336Z,1.77
2023-03-05T18:11:35.322Z,1.65
2023-03-05T18:14:03.495Z,1.80
2023-03-05T18:16:31.177Z,1.77
2023-03-05T18:18:58.749Z,2.20
2023-03-05T18:21:28.169Z,1.98
2023-03-05T18:23:55.829Z,1.98
2023-03-05T18:26:23.482Z,2.25
2023-03-05T18:28:51.085Z,2.60
2023-03-05T18:31:19.337Z,3.05
2023-03-05T18:33:47.013Z,2.83
2023-03-05T18:36:15.122Z,2.90
2023-03-05T18:38:43.246Z,2.58
2023-03-05T18:41:20.567Z,2.13
2023-03-05T18:43:48.457Z,2.00
2023-03-05T18:46:16.849Z,1.80
2023-03-05T18:48:44.622Z,2.13
2023-03-05T18:51:18.041Z,1.60
2023-03-05T18:53:46.371Z,1.40
2023-03-05T18:56:14.257Z,1.40
2023-03-05T18:58:41.981Z,1.77
2023-03-05T19:01:10.020Z,1.30
2023-03-05T19:03:37.703Z,1.48
2023-03-05T19:06:07.331Z,1.70
2023-03-05T19:08:35.157Z,2.25
2023-03-05T19:11:03.628Z,1.40
2023-03-05T19:13:40.570Z,1.40
2023-03-05T19:16:08.238Z,1.30
2023-03-05T19:18:43.030Z,1.40
2023-03-05T19:21:10.689Z,1.52
2023-03-05T19:23:38.439Z,1.60
2023-03-05T19:26:06.077Z,1.73
2023-03-05T19:28:33.582Z,1.17
2023-03-05T19:31:01.606Z,1.65
2023-03-05T19:33:29.220Z,1.73
2023-03-05T19:35:56.969Z,1.95
2023-03-05T19:38:24.694Z,1.50
2023-03-05T19:40:52.565Z,2.05
2023-03-05T19:43:20.144Z,1.92
2023-03-05T19:45:47.792Z,2.13
2023-03-05T19:48:16.871Z,1.85
2023-03-05T19:50:44.510Z,1.48
2023-03-05T19:53:12.052Z,1.70
2023-03-05T19:55:40.838Z,1.85
2023-03-05T19:58:08.498Z,1.73
2023-03-05T20:00:36.868Z,1.40
2023-03-05T20:03:04.400Z,1.80
2023-03-05T20:05:32.048Z,2.08
2023-03-05T20:07:59.622Z,2.28
2023-03-05T20:10:27.381Z,2.80
2023-03-05T20:12:55.081Z,2.67
2023-03-05T20:15:23.458Z,2.40
2023-03-05T20:17:52.781Z,2.58
2023-03-05T20:20:20.572Z,2.70
2023-03-05T20:22:48.234Z,2.60
2023-03-05T20:25:17.688Z,2.72
2023-03-05T20:27:45.217Z,2.50
2023-03-05T20:30:15.327Z,2.92
2023-03-05T20:32:43.085Z,3.30
2023-03-05T20:35:18.843Z,3.30
2023-03-05T20:38:00.095Z,2.95
2023-03-05T20:40:27.912Z,3.00
2023-03-05T20:42:55.466Z,2.95
2023-03-05T20:45:23.414Z,3.05
2023-03-05T20:47:51.036Z,2.70
2023-03-05T20:50:19.780Z,2.83
2023-03-05T20:52:47.558Z,2.90
2023-03-05T20:55:15.076Z,3.00
2023-03-05T20:57:44.124Z,3.47
2023-03-05T21:00:12.599Z,3.30
2023-03-05T21:02:40.471Z,3.70
2023-03-05T21:05:12.609Z,2.97
2023-03-05T21:07:40.465Z,3.05
2023-03-05T21:10:11.374Z,2.72
2023-03-05T21:12:38.942Z,3.97
2023-03-05T21:15:07.428Z,3.65
2023-03-05T21:17:35.112Z,3.25
2023-03-05T21:20:03.258Z,3.60
2023-03-05T21:22:30.853Z,3.30
2023-03-05T21:25:11.966Z,4.07
2023-03-05T21:27:40.110Z,3.08
2023-03-05T21:30:08.867Z,3.33
2023-03-05T21:32:40.608Z,3.33
2023-03-05T21:35:11.402Z,3.50
2023-03-05T21:37:42.933Z,3.20
2023-03-05T21:40:16.477Z,4.00
2023-03-05T21:42:45.120Z,4.18
2023-03-05T21:45:18.606Z,4.10
2023-03-05T21:47:46.462Z,4.43
2023-03-05T21:50:16.186Z,4.63
2023-03-05T21:52:43.908Z,4.38
2023-03-05T21:55:17.337Z,4.88
2023-03-05T21:57:45.680Z,4.53
2023-03-05T22:00:14.322Z,4.95
2023-03-05T22:02:42.425Z,5.35
2023-03-05T22:05:13.412Z,4.53
2023-03-05T22:07:41.186Z,4.65
2023-03-05T22:10:14.801Z,4.38
2023-03-05T22:13:05.500Z,4.30
2023-03-05T22:15:34.186Z,4.53
2023-03-05T22:18:01.676Z,4.47
2023-03-05T22:20:29.311Z,4.93
2023-03-05T22:22:57.244Z,4.95
2023-03-05T22:25:24.679Z,5.43
2023-03-05T22:27:52.211Z,5.40
2023-03-05T22:30:20.093Z,4.93
2023-03-05T22:32:48.165Z,6.18
2023-03-05T22:35:16.572Z,5.15
2023-03-05T22:37:44.341Z,6.40
2023-03-05T22:40:20.500Z,5.25
2023-03-05T22:42:48.642Z,5.53
2023-03-05T22:45:18.312Z,5.53
2023-03-05T22:47:48.556Z,5.53
2023-03-05T22:50:17.958Z,5.93
2023-03-05T22:52:45.638Z,4.87
2023-03-05T22:55:15.547Z,5.35
2023-03-05T23:00:15.929Z,4.00
2023-03-05T23:02:44.393Z,4.25
2023-03-05T23:05:12.183Z,4.03
2023-03-05T23:07:41.836Z,4.72
2023-03-05T23:10:12.422Z,5.13
2023-03-05T23:12:49.363Z,5.25
2023-03-05T23:15:21.113Z,5.63
2023-03-05T23:17:49.510Z,5.97
2023-03-05T23:20:19.581Z,5.85
2023-03-05T23:22:47.707Z,5.10
2023-03-05T23:25:16.425Z,4.72
2023-03-05T23:27:44.207Z,5.78
2023-03-05T23:30:28.149Z,4.95
2023-03-05T23:33:10.789Z,6.38
2023-03-05T23:35:42.818Z,6.28
2023-03-05T23:38:14.460Z,5.80
2023-03-05T23:40:44.801Z,6.22
2023-03-05T23:43:13.399Z,6.57
2023-03-05T23:45:42.716Z,6.00
2023-03-05T23:48:11.000Z,6.25
2023-03-05T23:50:43.913Z,6.95
2023-03-05T23:53:17.342Z,7.32
2023-03-05T23:55:46.097Z,6.88
2023-03-05T23:58:14.303Z,5.97
